Time;durP1;ratioP1;P1;durP2;ratioP2;P2;SDS_P1;SDS_P2;PMS_P1;PMS_P2;Temp;Humidity;BMP_temperature;BMP_pressure;BME280_temperature;BME280_humidity;BME280_pressure;Samples;Min_cycle;Max_cycle;Signal;HPM_P1;HPM_P2
2021/03/26 00:01:03;;;;;;;11.98;7.25;;;;;;;7.05;100.00;96778.66;4990270;28;20073;-47
2021/03/26 00:03:33;;;;;;;11.80;7.18;;;;;;;7.05;100.00;96778.66;5030554;28;20065;-49
2021/03/26 00:06:03;;;;;;;12.40;7.38;;;;;;;6.90;100.00;96772.78;5002912;28;20061;-48
2021/03/26 00:08:31;;;;;;;12.13;7.15;;;;;;;6.96;100.00;96776.72;5029438;28;20161;-52
2021/03/26 00:10:59;;;;;;;10.88;6.93;;;;;;;6.92;100.00;96774.44;5000563;28;21737;-47
2021/03/26 00:13:27;;;;;;;11.50;7.40;;;;;;;6.89;100.00;96770.28;5027347;28;20061;-46
2021/03/26 00:15:54;;;;;;;10.70;7.47;;;;;;;6.66;100.00;96780.66;5002908;28;20061;-48
2021/03/26 00:18:23;;;;;;;12.38;7.75;;;;;;;6.72;100.00;96781.19;5025206;28;20076;-48
2021/03/26 00:20:50;;;;;;;11.85;7.47;;;;;;;6.68;100.00;96782.34;4996980;28;20084;-47
2021/03/26 00:23:19;;;;;;;13.00;7.85;;;;;;;6.56;100.00;96786.69;5026369;28;20756;-46
2021/03/26 00:25:46;;;;;;;12.75;7.55;;;;;;;6.54;100.00;96783.38;5001694;28;20110;-46
2021/03/26 00:28:14;;;;;;;15.52;8.15;;;;;;;6.59;100.00;96781.22;5018908;28;20084;-46
2021/03/26 00:30:41;;;;;;;14.13;7.90;;;;;;;6.52;100.00;96790.50;5002186;28;20066;-46
2021/03/26 00:33:11;;;;;;;12.52;7.95;;;;;;;6.47;100.00;96784.72;5029135;28;20082;-48
2021/03/26 00:35:40;;;;;;;13.48;8.40;;;;;;;6.49;100.00;96791.53;5000322;28;20095;-49
2021/03/26 00:38:08;;;;;;;14.88;8.27;;;;;;;6.51;100.00;96791.44;5034286;28;20091;-48
2021/03/26 00:40:36;;;;;;;13.05;8.27;;;;;;;6.31;100.00;96793.72;5016833;28;20052;-52
2021/03/26 00:43:04;;;;;;;17.45;8.60;;;;;;;6.33;100.00;96794.44;5019144;28;20065;-46
2021/03/26 00:45:36;;;;;;;15.65;8.70;;;;;;;6.37;100.00;96793.28;5035477;28;20137;-51
2021/03/26 00:48:04;;;;;;;16.52;8.45;;;;;;;6.29;100.00;96800.81;5003639;28;20076;-47
2021/03/26 00:50:35;;;;;;;15.93;8.40;;;;;;;6.26;100.00;96797.59;5032839;28;20085;-52
2021/03/26 00:53:07;;;;;;;14.95;8.45;;;;;;;6.24;100.00;96805.56;5002939;28;20493;-47
2021/03/26 00:55:35;;;;;;;17.23;10.05;;;;;;;6.27;100.00;96800.13;5029868;28;20061;-46
2021/03/26 00:58:03;;;;;;;16.63;9.25;;;;;;;6.24;100.00;96802.13;5012483;28;20083;-49
2021/03/26 01:01:07;;;;;;;15.13;9.05;;;;;;;6.08;100.00;96803.19;5026955;28;20391;-47
2021/03/26 01:03:35;;;;;;;16.92;9.77;;;;;;;6.16;100.00;96800.88;4994224;28;20056;-47
2021/03/26 01:06:06;;;;;;;17.17;9.15;;;;;;;5.98;100.00;96803.94;5037184;28;20087;-46
2021/03/26 01:08:34;;;;;;;18.02;9.23;;;;;;;6.03;100.00;96800.06;4989433;28;20091;-46
2021/03/26 01:11:06;;;;;;;17.40;9.35;;;;;;;5.95;100.00;96794.53;5034137;28;20088;-46
2021/03/26 01:13:34;;;;;;;17.73;10.10;;;;;;;6.01;100.00;96796.72;5005955;28;20069;-47
2021/03/26 01:16:01;;;;;;;17.95;10.43;;;;;;;6.16;100.00;96800.88;5023538;28;20531;-47
2021/03/26 01:18:31;;;;;;;19.55;10.70;;;;;;;6.18;100.00;96792.91;5005785;28;20526;-45
2021/03/26 01:21:00;;;;;;;18.40;10.57;;;;;;;6.17;100.00;96797.31;5021424;28;20065;-46
2021/03/26 01:23:29;;;;;;;21.30;11.35;;;;;;;6.05;100.00;96795.53;5002322;28;20353;-46
2021/03/26 01:26:12;;;;;;;23.17;10.73;;;;;;;6.11;100.00;96794.28;5019295;28;20116;-47
2021/03/26 01:28:40;;;;;;;26.83;11.32;;;;;;;6.11;100.00;96794.28;5001177;28;20065;-46
2021/03/26 01:31:08;;;;;;;23.85;11.82;;;;;;;6.07;100.00;96798.91;5029305;28;20053;-49
2021/03/26 01:33:35;;;;;;;25.98;12.00;;;;;;;6.04;100.00;96791.25;4991391;28;20076;-47
2021/03/26 01:36:06;;;;;;;26.90;12.15;;;;;;;6.07;100.00;96791.06;5024012;28;20077;-48
2021/03/26 01:38:33;;;;;;;29.95;12.90;;;;;;;6.09;100.00;96794.41;4995526;28;20072;-48
2021/03/26 01:41:03;;;;;;;28.35;12.93;;;;;;;5.93;100.00;96799.03;5021312;28;20081;-48
2021/03/26 01:43:34;;;;;;;31.17;14.48;;;;;;;6.02;100.00;96794.94;4988983;28;20061;-47
2021/03/26 01:46:02;;;;;;;30.88;13.93;;;;;;;6.02;100.00;96801.03;5029436;28;20072;-49
2021/03/26 01:48:33;;;;;;;30.02;13.48;;;;;;;6.11;100.00;96794.28;5002560;28;23304;-47
2021/03/26 01:51:04;;;;;;;32.47;13.98;;;;;;;5.99;100.00;96788.16;5018768;28;20074;-45
2021/03/26 01:53:31;;;;;;;27.42;13.88;;;;;;;6.08;100.00;96790.09;4994891;28;20060;-45
2021/03/26 01:56:00;;;;;;;30.83;13.15;;;;;;;6.01;100.00;96778.38;5037920;28;20077;-44
2021/03/26 01:58:31;;;;;;;26.85;13.63;;;;;;;5.92;100.00;96776.41;5006548;28;20136;-48
2021/03/26 02:01:02;;;;;;;29.38;13.82;;;;;;;5.80;100.00;96782.50;5030387;28;20057;-49
2021/03/26 02:03:34;;;;;;;35.60;13.13;;;;;;;5.86;100.00;96779.44;5007660;28;20065;-48
2021/03/26 02:06:05;;;;;;;34.90;13.65;;;;;;;5.79;100.00;96786.91;4980976;28;20065;-50
2021/03/26 02:08:33;;;;;;;;;;;;;;;5.70;100.00;96790.97;5003521;28;20073;-50
2021/03/26 02:11:05;;;;;;;24.55;12.27;;;;;;;5.57;100.00;96790.13;4995296;28;20410;-49
2021/03/26 02:13:34;;;;;;;25.55;11.98;;;;;;;5.57;100.00;96784.06;5037637;28;20061;-48
2021/03/26 02:16:05;;;;;;;22.92;11.68;;;;;;;5.76;100.00;96778.44;4995739;28;20311;-47
2021/03/26 02:18:35;;;;;;;21.10;11.43;;;;;;;5.80;100.00;96782.50;5045241;28;20514;-49
2021/03/26 02:21:07;;;;;;;21.50;11.20;;;;;;;5.74;100.00;96786.38;4998179;28;20084;-51
2021/03/26 02:23:37;;;;;;;22.25;10.95;;;;;;;5.68;100.00;96786.81;5034779;28;20549;-47
2021/03/26 02:26:11;;;;;;;24.63;11.55;;;;;;;5.73;100.00;96792.53;4991794;28;20079;-48
2021/03/26 02:28:39;;;;;;;25.40;12.10;;;;;;;5.76;100.00;96792.34;5033386;28;20069;-49
2021/03/26 02:31:07;;;;;;;23.42;11.90;;;;;;;5.71;100.00;96783.97;5005084;28;20529;-46
2021/03/26 02:33:35;;;;;;;27.50;12.75;;;;;;;5.65;100.00;96795.69;5028920;28;20440;-47
2021/03/26 02:36:38;;;;;;;27.45;12.80;;;;;;;5.72;100.00;96794.34;5004418;28;20061;-48
2021/03/26 02:39:14;;;;;;;22.00;11.48;;;;;;;5.82;100.00;96794.53;5025624;28;20512;-48
2021/03/26 02:41:46;;;;;;;25.35;11.68;;;;;;;5.72;100.00;96785.66;5000581;28;20100;-47
2021/03/26 02:44:21;;;;;;;25.42;12.00;;;;;;;5.73;100.00;96787.31;5034150;28;20068;-47
2021/03/26 02:47:07;;;;;;;23.63;12.15;;;;;;;5.75;100.00;96789.81;4982979;28;20435;-49
2021/03/26 02:49:41;;;;;;;24.85;11.05;;;;;;;5.70;100.00;96798.00;5030812;28;20069;-47
2021/03/26 02:52:12;;;;;;;26.48;11.85;;;;;;;5.74;100.00;96801.22;4981514;28;20072;-52
2021/03/26 02:54:43;;;;;;;20.75;11.38;;;;;;;5.68;100.00;96802.50;5032670;28;20057;-51
2021/03/26 02:57:13;;;;;;;23.60;11.77;;;;;;;5.36;100.00;96795.06;5007894;28;20060;-45
2021/03/26 02:59:44;;;;;;;25.15;10.93;;;;;;;5.55;100.00;96807.75;5033195;28;20079;-47
2021/03/26 03:02:15;;;;;;;20.42;10.77;;;;;;;5.46;100.00;96805.75;5012342;28;20075;-49
2021/03/26 03:04:44;;;;;;;;;;;;;;;5.14;100.00;96797.47;5029555;28;20472;-52
2021/03/26 03:07:19;;;;;;;16.38;9.05;;;;;;;5.16;100.00;96798.19;4996488;28;19956;-47
2021/03/26 03:09:49;;;;;;;18.55;9.73;;;;;;;5.25;100.00;96808.03;5014916;28;20515;-49
2021/03/26 03:12:19;;;;;;;18.83;10.60;;;;;;;5.22;100.00;96806.47;4992248;28;20428;-50
2021/03/26 03:14:54;;;;;;;21.92;10.20;;;;;;;5.45;100.00;96807.53;5028144;28;20099;-49
2021/03/26 03:17:24;;;;;;;17.05;9.57;;;;;;;5.59;100.00;96808.38;5003594;28;20081;-49
2021/03/26 03:19:55;;;;;;;18.17;10.52;;;;;;;5.38;100.00;96808.06;5023193;28;20083;-50
2021/03/26 03:22:27;;;;;;;15.75;9.10;;;;;;;5.36;100.00;96810.75;4999055;28;20137;-47
2021/03/26 03:25:01;;;;;;;19.23;9.50;;;;;;;5.51;100.00;96811.50;5034248;28;20470;-52
2021/03/26 03:27:37;;;;;;;17.33;9.50;;;;;;;5.75;100.00;96813.38;4993193;28;20074;-49
2021/03/26 03:30:14;;;;;;;15.13;9.23;;;;;;;5.75;100.00;96809.00;5031947;28;20076;-47
2021/03/26 03:32:45;;;;;;;18.38;9.88;;;;;;;5.80;100.00;96808.66;4992630;28;20084;-45
2021/03/26 03:35:18;;;;;;;18.20;9.68;;;;;;;5.72;100.00;96803.97;5020704;28;20064;-48
2021/03/26 03:37:53;;;;;;;20.05;9.60;;;;;;;5.67;100.00;96798.19;4993733;28;20073;-47
2021/03/26 03:40:25;;;;;;;14.48;9.15;;;;;;;5.60;100.00;96807.41;5021034;28;20057;-47
2021/03/26 03:42:57;;;;;;;16.20;8.88;;;;;;;5.44;100.00;96802.41;4991151;28;20083;-46
2021/03/26 03:45:28;;;;;;;13.10;8.50;;;;;;;5.38;100.00;96795.81;5023179;28;20077;-46
2021/03/26 03:47:56;;;;;;;;;;;;;;;5.57;100.00;96805.00;4993713;28;20068;-46
2021/03/26 03:50:28;;;;;;;14.75;8.73;;;;;;;5.62;100.00;96792.47;5029015;28;20340;-46
2021/03/26 03:52:59;;;;;;;16.30;9.05;;;;;;;5.63;100.00;96791.50;4999006;28;20520;-49
2021/03/26 03:55:32;;;;;;;13.50;8.50;;;;;;;5.76;100.00;96791.50;5018661;28;20465;-47
2021/03/26 03:58:04;;;;;;;14.80;8.32;;;;;;;5.83;100.00;96785.72;5023503;28;20073;-48
2021/03/26 04:00:33;;;;;;;11.85;7.93;;;;;;;5.76;100.00;96789.72;5016192;28;20061;-46
2021/03/26 04:03:07;;;;;;;15.30;8.13;;;;;;;5.49;100.00;96789.84;5020903;28;20065;-46
2021/03/26 04:05:41;;;;;;;13.48;7.90;;;;;;;5.75;100.00;96788.06;4981319;28;20069;-47
2021/03/26 04:08:11;;;;;;;12.98;7.85;;;;;;;5.83;100.00;96790.97;5021805;28;20065;-52
2021/03/26 04:10:42;;;;;;;13.85;7.90;;;;;;;5.66;100.00;96789.53;4987457;28;20464;-50
2021/03/26 04:13:12;;;;;;;11.52;7.40;;;;;;;5.48;100.00;96786.41;5025922;28;20065;-46
2021/03/26 04:15:43;;;;;;;11.63;7.55;;;;;;;5.73;100.00;96797.78;4993733;28;20724;-46
2021/03/26 04:18:11;;;;;;;;;;;;;;;5.83;100.00;96790.97;5014477;28;20444;-49
2021/03/26 04:20:42;;;;;;;14.43;8.02;;;;;;;5.75;100.00;96790.69;4996890;28;20342;-47
2021/03/26 04:23:16;;;;;;;13.02;8.13;;;;;;;5.44;100.00;96794.56;5033125;28;20555;-47
2021/03/26 04:25:51;;;;;;;11.48;7.65;;;;;;;5.43;100.00;96787.63;4997864;28;20496;-46
2021/03/26 04:28:21;;;;;;;14.73;7.63;;;;;;;5.44;100.00;96784.09;5030535;28;20049;-46
2021/03/26 04:30:53;;;;;;;13.18;7.57;;;;;;;5.42;100.00;96778.97;5010764;28;20075;-48
2021/03/26 04:33:20;;;;;;;14.07;8.07;;;;;;;5.38;100.00;96787.97;5026111;28;20431;-47
2021/03/26 04:35:51;;;;;;;16.67;8.20;;;;;;;4.97;100.00;96801.19;4992057;28;20497;-46
2021/03/26 04:38:21;;;;;;;12.90;8.07;;;;;;;4.19;100.00;96801.88;5005296;28;20061;-45
2021/03/26 04:40:51;;;;;;;;;;;;;;;4.54;100.00;96804.00;4999600;28;20069;-46
2021/03/26 04:43:23;;;;;;;14.55;7.85;;;;;;;4.02;100.00;96813.34;5025157;28;19964;-49
2021/03/26 04:45:56;;;;;;;13.98;8.48;;;;;;;4.44;100.00;96800.28;4988214;28;20477;-48
2021/03/26 04:48:27;;;;;;;13.75;9.05;;;;;;;4.44;100.00;96800.28;5024526;28;20068;-48
2021/03/26 04:51:00;;;;;;;14.40;8.70;;;;;;;4.41;100.00;96801.34;4994356;28;20077;-51
2021/03/26 04:53:42;;;;;;;11.75;7.93;;;;;;;4.21;100.00;96810.44;5034141;28;20046;-46
2021/03/26 04:56:13;;;;;;;12.65;8.43;;;;;;;4.34;100.00;96813.13;4992081;28;20559;-49
2021/03/26 04:58:42;;;;;;;16.20;8.90;;;;;;;4.37;100.00;96807.72;5033716;28;20448;-48
2021/03/26 05:01:14;;;;;;;16.23;8.50;;;;;;;4.34;100.00;96801.84;4993299;28;20076;-46
2021/03/26 05:03:44;;;;;;;15.60;8.93;;;;;;;4.14;100.00;96808.31;5029980;28;20183;-49
2021/03/26 05:06:16;;;;;;;15.70;8.52;;;;;;;3.98;100.00;96817.09;4994141;28;20076;-48
2021/03/26 05:08:47;;;;;;;16.40;8.35;;;;;;;4.12;100.00;96808.41;5016695;28;20085;-49
2021/03/26 05:11:16;;;;;;;13.10;8.27;;;;;;;4.15;100.00;96808.22;4999831;28;21026;-46
2021/03/26 05:13:47;;;;;;;13.88;8.07;;;;;;;4.19;100.00;96812.31;5020578;28;20065;-47
2021/03/26 05:16:18;;;;;;;18.13;7.97;;;;;;;4.27;100.00;96811.84;5000098;28;20073;-49
2021/03/26 05:18:48;;;;;;;12.10;7.93;;;;;;;4.26;100.00;96804.94;5026465;28;20081;-49
2021/03/26 05:21:20;;;;;;;13.07;8.25;;;;;;;4.25;100.00;96791.03;5025876;28;20085;-51
2021/03/26 05:23:51;;;;;;;17.60;8.75;;;;;;;4.27;100.00;96797.00;5019849;28;20076;-49
2021/03/26 05:26:20;;;;;;;15.98;8.35;;;;;;;4.42;100.00;96796.97;5028705;28;20444;-44
2021/03/26 05:28:47;;;;;;;19.23;8.85;;;;;;;4.51;100.00;96794.59;5013176;28;20523;-46
2021/03/26 05:31:31;;;;;;;19.08;8.73;;;;;;;4.88;100.00;96800.03;5023180;28;20080;-47
2021/03/26 05:34:05;;;;;;;19.80;8.65;;;;;;;4.76;100.00;96804.28;4992335;28;20065;-49
2021/03/26 05:36:36;;;;;;;12.43;7.53;;;;;;;4.29;100.00;96812.56;5025429;28;20073;-54
2021/03/26 05:39:11;;;;;;;13.93;7.60;;;;;;;4.31;100.00;96812.50;4998718;28;20069;-51
2021/03/26 05:42:05;;;;;;;11.52;7.72;;;;;;;4.34;100.00;96805.28;5032789;28;20125;-53
2021/03/26 05:44:56;;;;;;;12.73;7.90;;;;;;;4.54;100.00;96806.59;5007351;28;20486;-50
2021/03/26 05:47:47;;;;;;;12.07;7.97;;;;;;;4.69;100.00;96808.25;5009760;28;20081;-46
2021/03/26 05:50:26;;;;;;;15.52;7.95;;;;;;;4.41;100.00;96809.19;5036128;28;20463;-54
2021/03/26 05:53:17;;;;;;;10.77;7.32;;;;;;;4.52;100.00;96801.50;5003021;28;20076;-51
2021/03/26 05:55:48;;;;;;;;;;;;;;;4.94;100.00;96806.63;5047619;28;20069;-50
2021/03/26 05:58:24;;;;;;;12.27;8.25;;;;;;;4.95;100.00;96806.50;4996707;28;19974;-52
2021/03/26 06:01:10;;;;;;;11.10;7.43;;;;;;;5.00;100.00;96796.59;5023634;28;20069;-46
2021/03/26 06:03:57;;;;;;;14.88;8.13;;;;;;;4.97;100.00;96802.03;5001385;28;20073;-51
2021/03/26 06:06:54;;;;;;;13.30;8.43;;;;;;;4.91;100.00;96812.06;5027907;28;20077;-50
2021/03/26 06:09:50;;;;;;;12.65;8.00;;;;;;;5.25;100.00;96802.81;4996234;28;20072;-47
2021/03/26 06:12:49;;;;;;;12.50;8.23;;;;;;;5.71;100.00;96808.38;5036322;28;20460;-48
2021/03/26 06:15:46;;;;;;;14.43;8.07;;;;;;;5.99;100.00;96796.00;4973227;28;20072;-50
2021/03/26 06:18:43;;;;;;;13.10;8.27;;;;;;;6.26;100.00;96797.59;5039447;28;20069;-47
2021/03/26 06:21:20;;;;;;;14.93;8.35;;;;;;;6.40;100.00;96797.44;5033798;28;20077;-49
2021/03/26 06:23:58;;;;;;;12.02;7.63;;;;;;;6.57;100.00;96791.84;5015045;28;20088;-47
2021/03/26 06:26:35;;;;;;;13.32;8.02;;;;;;;6.77;100.00;96787.72;5046324;28;20166;-45
2021/03/26 06:29:12;;;;;;;14.43;7.65;;;;;;;6.81;100.00;96783.97;4994967;28;21889;-50
2021/03/26 06:32:08;;;;;;;12.38;7.45;;;;;;;6.87;100.00;96793.13;5030882;28;20068;-47
2021/03/26 06:35:07;;;;;;;14.85;7.30;;;;;;;6.89;100.00;96789.47;4992918;28;20079;-49
2021/03/26 06:38:01;;;;;;;14.32;7.63;;;;;;;6.74;100.00;96793.19;5028171;28;20480;-49
2021/03/26 06:40:47;;;;;;;15.30;7.85;;;;;;;6.99;100.00;96780.91;5003413;28;20061;-52
2021/03/26 06:44:15;;;;;;;12.35;7.82;;;;;;;7.41;100.00;96792.56;5037601;28;20049;-48
2021/03/26 06:46:50;;;;;;;13.60;7.68;;;;;;;7.49;100.00;96792.81;4991115;28;20076;-49
2021/03/26 06:49:28;;;;;;;12.98;7.38;;;;;;;7.71;100.00;96786.78;5033851;28;20037;-47
2021/03/26 06:52:03;;;;;;;12.43;7.70;;;;;;;8.17;100.00;96788.41;5002544;28;20064;-48
2021/03/26 06:54:54;;;;;;;11.85;7.55;;;;;;;8.14;100.00;96788.66;5036626;28;20073;-49
2021/03/26 06:58:00;;;;;;;12.27;7.65;;;;;;;7.70;100.00;96792.94;5028592;28;20069;-49
2021/03/26 07:00:55;;;;;;;12.35;8.05;;;;;;;8.05;100.00;96789.38;4991631;28;23403;-51
2021/03/26 07:04:04;;;;;;;12.85;7.70;;;;;;;8.64;100.00;96788.22;5034916;28;20463;-53
2021/03/26 07:06:57;;;;;;;10.32;7.30;;;;;;;8.86;100.00;96779.41;4995514;28;20069;-50
2021/03/26 07:09:55;;;;;;;11.75;7.13;;;;;;;9.13;100.00;96779.75;5008817;28;20595;-52
2021/03/26 07:12:35;;;;;;;12.13;7.50;;;;;;;8.65;100.00;96785.47;4998489;28;20072;-47
2021/03/26 07:15:05;;;;;;;10.68;7.32;;;;;;;8.92;100.00;96786.81;5041743;28;20490;-50
2021/03/26 07:17:45;;;;;;;14.43;7.93;;;;;;;8.75;100.00;96778.50;4995814;28;20099;-46
2021/03/26 07:20:52;;;;;;;11.55;7.70;;;;;;;9.14;100.00;96772.69;5041168;28;20064;-51
2021/03/26 07:23:56;;;;;;;11.93;7.70;;;;;;;9.59;95.11;96777.69;5006730;28;21771;-48
2021/03/26 07:26:41;;;;;;;14.13;7.65;;;;;;;9.55;100.00;96778.91;4998924;28;20480;-49
2021/03/26 07:29:30;;;;;;;12.05;7.45;;;;;;;10.13;89.75;96773.91;5030559;28;21410;-52
2021/03/26 07:32:24;;;;;;;12.90;7.95;;;;;;;9.94;92.17;96767.59;5000483;28;20448;-53
2021/03/26 07:35:22;;;;;;;10.90;7.32;;;;;;;10.40;88.67;96763.59;5015319;28;20492;-49
2021/03/26 07:38:00;;;;;;;12.20;8.07;;;;;;;10.42;89.91;96760.81;4989018;28;20072;-50
2021/03/26 07:40:49;;;;;;;11.90;7.22;;;;;;;10.78;87.79;96763.78;5023270;28;20503;-52
2021/03/26 07:43:52;;;;;;;12.65;7.40;;;;;;;11.06;86.98;96759.47;4992407;28;20041;-51
2021/03/26 07:46:43;;;;;;;12.05;7.35;;;;;;;10.65;93.57;96761.41;5034391;28;20517;-47
2021/03/26 07:49:36;;;;;;;12.55;8.10;;;;;;;10.98;88.14;96759.31;4996037;28;20061;-47
2021/03/26 07:52:10;;;;;;;13.75;7.88;;;;;;;11.41;88.52;96767.59;5011683;28;20081;-49
2021/03/26 07:54:52;;;;;;;14.95;8.10;;;;;;;11.39;89.34;96760.81;5030312;28;20506;-46
2021/03/26 07:57:33;;;;;;;13.68;8.13;;;;;;;11.24;89.30;96767.50;5022214;28;20429;-52
2021/03/26 08:00:40;;;;;;;12.73;8.60;;;;;;;11.82;81.64;96762.06;5033040;28;20079;-49
2021/03/26 08:03:26;;;;;;;14.20;8.55;;;;;;;11.77;83.89;96761.69;4954092;28;20065;-47
2021/03/26 08:06:05;;;;;;;13.25;8.70;;;;;;;12.00;78.85;96754.22;5012856;28;20064;-51
2021/03/26 08:08:44;;;;;;;17.60;8.95;;;;;;;12.00;83.04;96760.34;4989665;28;20695;-52
2021/03/26 08:11:22;;;;;;;15.93;8.95;;;;;;;12.04;82.28;96759.09;5023282;28;20511;-50
2021/03/26 08:14:20;;;;;;;15.07;8.60;;;;;;;12.15;78.94;96751.91;5002752;28;20531;-53
2021/03/26 08:17:00;;;;;;;18.08;9.05;;;;;;;12.76;79.65;96745.97;5013785;28;20076;-49
2021/03/26 08:19:44;;;;;;;14.55;8.75;;;;;;;12.71;78.49;96756.19;4996403;28;20055;-50
2021/03/26 08:22:18;;;;;;;15.45;10.13;;;;;;;12.32;76.44;96759.09;5042230;28;20115;-49
2021/03/26 08:24:59;;;;;;;16.38;10.02;;;;;;;12.63;74.16;96756.94;4998956;28;20064;-50
2021/03/26 08:27:29;;;;;;;;;;;;;;;12.49;75.24;96755.66;5030740;28;20069;-47
2021/03/26 08:30:14;;;;;;;16.45;10.73;;;;;;;12.20;74.16;96762.91;5001600;28;19963;-49
2021/03/26 08:33:15;;;;;;;18.75;10.38;;;;;;;12.58;72.37;96760.00;5027312;28;20451;-49
2021/03/26 08:36:05;;;;;;;14.60;9.50;;;;;;;13.32;68.07;96754.56;4963911;28;20093;-46
2021/03/26 08:38:41;;;;;;;16.70;10.15;;;;;;;13.52;66.84;96753.38;5020518;28;20082;-52
2021/03/26 08:41:12;;;;;;;20.25;10.23;;;;;;;13.14;70.03;96754.56;4994904;28;20519;-47
2021/03/26 08:43:40;;;;;;;14.85;8.98;;;;;;;13.65;68.13;96758.28;5033363;28;20539;-51
2021/03/26 08:46:19;;;;;;;14.93;9.45;;;;;;;13.56;70.10;96759.19;4994575;28;20072;-47
2021/03/26 08:48:50;;;;;;;15.10;9.50;;;;;;;13.87;67.92;96760.41;5035933;28;20075;-51
2021/03/26 08:51:49;;;;;;;14.13;9.63;;;;;;;13.93;69.37;96764.22;4996651;28;20061;-51
2021/03/26 08:54:30;;;;;;;17.10;9.70;;;;;;;13.83;66.79;96766.16;5029555;28;20081;-50
2021/03/26 08:57:00;;;;;;;;;;;;;;;14.09;66.02;96771.44;5008900;28;20471;-46
2021/03/26 08:59:39;;;;;;;16.83;10.60;;;;;;;13.41;68.14;96764.25;5027492;28;19976;-51
2021/03/26 09:02:39;;;;;;;13.80;9.57;;;;;;;14.16;64.45;96761.84;5006377;28;20391;-48
2021/03/26 09:05:23;;;;;;;19.92;10.85;;;;;;;14.20;65.05;96766.69;4998342;28;20495;-51
2021/03/26 09:07:59;;;;;;;17.13;10.32;;;;;;;14.07;65.56;96768.09;5030450;28;20064;-50
2021/03/26 09:10:37;;;;;;;21.00;10.68;;;;;;;14.49;63.79;96754.84;4992949;28;20068;-45
2021/03/26 09:13:14;;;;;;;16.90;10.60;;;;;;;13.80;68.00;96761.16;5022289;28;21444;-45
2021/03/26 09:15:57;;;;;;;16.45;10.52;;;;;;;14.21;65.75;96764.84;5008545;28;22611;-48
2021/03/26 09:18:42;;;;;;;19.80;10.98;;;;;;;13.58;71.04;96759.88;5025248;28;20077;-49
2021/03/26 09:21:20;;;;;;;17.88;10.63;;;;;;;14.09;66.95;96753.72;4991549;28;20076;-46
2021/03/26 09:24:05;;;;;;;17.33;10.70;;;;;;;14.17;65.57;96756.38;5030911;28;20536;-48
2021/03/26 09:26:43;;;;;;;15.98;11.20;;;;;;;14.40;64.53;96745.19;4990965;28;20081;-48
2021/03/26 09:29:13;;;;;;;18.23;11.27;;;;;;;13.85;65.37;96751.78;5028801;28;20435;-50
2021/03/26 09:31:44;;;;;;;20.37;10.90;;;;;;;14.17;62.86;96739.63;4996529;28;20076;-47
2021/03/26 09:34:20;;;;;;;21.52;12.25;;;;;;;15.07;58.95;96732.75;5020982;28;20072;-53
2021/03/26 09:37:06;;;;;;;17.20;10.65;;;;;;;14.93;59.70;96728.91;5002263;28;20072;-54
2021/03/26 09:39:34;;;;;;;17.38;11.40;;;;;;;15.04;59.06;96729.59;5018307;28;20077;-53
2021/03/26 09:42:14;;;;;;;20.60;11.65;;;;;;;15.19;57.47;96727.91;5001763;28;20134;-50
2021/03/26 09:45:11;;;;;;;21.85;12.85;;;;;;;15.40;55.51;96722.91;5031719;28;20695;-49
2021/03/26 09:47:42;;;;;;;20.27;12.18;;;;;;;14.89;60.00;96722.25;5001941;28;20077;-47
2021/03/26 09:50:25;;;;;;;20.02;12.43;;;;;;;15.43;55.51;96717.25;5033771;28;20697;-47
2021/03/26 09:52:54;;;;;;;19.90;12.95;;;;;;;15.50;58.24;96719.25;4990868;28;20476;-52
2021/03/26 09:55:27;;;;;;;20.88;12.88;;;;;;;15.59;59.01;96715.59;5038100;28;20515;-45
2021/03/26 09:58:01;;;;;;;24.25;13.15;;;;;;;15.51;58.77;96720.91;5000132;28;20531;-48
2021/03/26 10:00:45;;;;;;;22.45;14.23;;;;;;;16.16;55.57;96712.75;5032729;28;20081;-46
2021/03/26 10:03:21;;;;;;;19.45;12.23;;;;;;;15.16;58.00;96710.47;5000531;28;20063;-46
2021/03/26 10:05:54;;;;;;;19.63;11.65;;;;;;;14.76;58.13;96711.28;5026049;28;20072;-51
2021/03/26 10:11:18;;;;;;;21.17;13.70;;;;;;;15.86;55.25;96711.69;5020012;28;21372;-46
2021/03/26 10:13:51;;;;;;;23.00;13.02;;;;;;;15.64;55.59;96708.72;4995555;28;20119;-47
2021/03/26 10:16:24;;;;;;;24.45;13.73;;;;;;;16.04;54.00;96714.97;5031108;28;20072;-49
2021/03/26 10:18:53;;;;;;;23.10;13.07;;;;;;;16.61;50.57;96703.19;4989712;28;20451;-51
2021/03/26 10:21:23;;;;;;;24.25;13.38;;;;;;;16.08;52.73;96708.28;5023307;28;20535;-49
2021/03/26 10:24:18;;;;;;;21.15;13.18;;;;;;;15.92;52.19;96699.53;4994921;28;20073;-49
2021/03/26 10:26:51;;;;;;;21.85;12.50;;;;;;;16.30;53.15;96697.88;5035572;28;20125;-46
2021/03/26 10:29:28;;;;;;;20.38;12.13;;;;;;;15.65;54.05;96705.06;4993157;28;20065;-47
2021/03/26 10:32:06;;;;;;;21.10;13.25;;;;;;;16.20;52.70;96683.94;5013762;28;20087;-51
2021/03/26 10:34:36;;;;;;;21.83;13.75;;;;;;;15.69;52.71;96696.78;4978100;28;20070;-47
2021/03/26 10:37:20;;;;;;;23.70;12.97;;;;;;;15.88;51.38;96691.91;5023498;28;20077;-47
2021/03/26 10:39:52;;;;;;;23.23;13.50;;;;;;;15.69;53.14;96691.47;4982282;28;20548;-48
2021/03/26 10:42:31;;;;;;;20.15;12.73;;;;;;;16.01;53.42;96682.56;5028003;28;20493;-51
2021/03/26 10:45:21;;;;;;;18.88;12.43;;;;;;;16.53;53.33;96680.09;4995910;28;20524;-49
2021/03/26 10:47:52;;;;;;;22.45;13.13;;;;;;;15.90;57.44;96678.44;5037607;28;20096;-47
2021/03/26 10:50:30;;;;;;;22.13;13.48;;;;;;;16.31;53.84;96671.09;5005823;28;20065;-50
2021/03/26 10:53:04;;;;;;;19.45;13.65;;;;;;;16.81;52.26;96668.94;5039404;28;20289;-54
2021/03/26 10:55:36;;;;;;;20.58;12.57;;;;;;;16.71;51.76;96671.00;5002386;28;20087;-48
2021/03/26 10:58:07;;;;;;;20.38;12.88;;;;;;;16.91;53.28;96666.06;5037813;28;20072;-47
2021/03/26 11:00:37;;;;;;;19.30;13.23;;;;;;;17.05;52.87;96659.94;5008595;28;20076;-49
2021/03/26 11:03:09;;;;;;;22.52;14.00;;;;;;;17.02;54.46;96663.78;5030800;28;20075;-49
2021/03/26 11:05:45;;;;;;;;;;;;;;;16.21;52.13;96656.34;5000539;28;20504;-49
2021/03/26 11:08:29;;;;;;;19.65;11.95;;;;;;;16.28;51.03;96655.47;5022981;28;20403;-50
2021/03/26 11:11:02;;;;;;;17.88;11.57;;;;;;;16.64;52.16;96659.41;4988394;28;20077;-47
2021/03/26 11:13:51;;;;;;;22.58;12.75;;;;;;;17.37;50.32;96648.13;5024264;28;20053;-47
2021/03/26 11:16:22;;;;;;;18.73;11.77;;;;;;;17.08;47.27;96640.91;4997701;28;20068;-47
2021/03/26 11:18:58;;;;;;;19.20;12.52;;;;;;;17.20;48.18;96643.97;5036887;28;20053;-47
2021/03/26 11:21:34;;;;;;;21.48;12.70;;;;;;;17.21;47.85;96643.81;4999082;28;20069;-47
2021/03/26 11:24:05;;;;;;;18.48;12.32;;;;;;;16.85;47.28;96641.78;5038269;28;20084;-47
2021/03/26 11:26:37;;;;;;;22.67;12.95;;;;;;;17.11;47.32;96629.09;4996345;28;20073;-47
2021/03/26 11:29:13;;;;;;;20.17;12.57;;;;;;;16.57;48.87;96622.00;5019240;28;20065;-49
2021/03/26 11:31:47;;;;;;;20.48;12.45;;;;;;;16.91;46.67;96629.59;4994046;28;20140;-47
2021/03/26 11:34:37;;;;;;;18.02;12.18;;;;;;;16.88;51.88;96626.44;5030939;28;20061;-48
2021/03/26 11:37:10;;;;;;;18.73;11.15;;;;;;;16.29;46.24;96619.03;4999751;28;20145;-49
2021/03/26 11:39:41;;;;;;;17.83;10.23;;;;;;;16.51;45.76;96617.38;5021262;28;20061;-49
2021/03/26 11:42:44;;;;;;;21.90;11.52;;;;;;;17.20;45.58;96611.97;4999841;28;20540;-50
2021/03/26 11:45:40;;;;;;;18.58;11.48;;;;;;;17.47;44.78;96599.88;5030407;28;20068;-50
2021/03/26 11:48:17;;;;;;;19.63;11.63;;;;;;;17.65;46.32;96595.00;4958846;28;20127;-51
2021/03/26 11:50:56;;;;;;;20.75;10.75;;;;;;;17.24;44.96;96591.94;5041189;28;20432;-50
2021/03/26 11:53:34;;;;;;;19.88;10.63;;;;;;;17.90;43.05;96579.53;4999546;28;20470;-52
2021/03/26 11:56:24;;;;;;;19.60;11.93;;;;;;;18.05;46.03;96589.34;5025498;28;21525;-47
2021/03/26 11:59:09;;;;;;;18.77;11.82;;;;;;;17.90;45.96;96574.19;5010796;28;20531;-53
2021/03/26 12:01:45;;;;;;;17.77;10.50;;;;;;;18.41;43.38;96573.28;5023311;28;20107;-48
2021/03/26 12:04:16;;;;;;;17.83;10.50;;;;;;;17.87;40.87;96574.56;5003051;28;20069;-51
2021/03/26 12:06:51;;;;;;;19.40;10.80;;;;;;;17.78;42.92;96573.00;5028118;28;20061;-51
2021/03/26 12:09:28;;;;;;;17.83;10.55;;;;;;;17.67;41.62;96571.63;4989941;28;20068;-52
2021/03/26 12:12:05;;;;;;;18.17;10.43;;;;;;;17.76;42.22;96561.72;5037442;28;20601;-48